sensor_id;sensor_type;location;lat;lon;timestamp;P1;durP1;ratioP1;P2;durP2;ratioP2
4835;SDS011;66719;51.226;6.902;2023-02-01T00:00:57;21.43;;;7.10;;
4835;SDS011;66719;51.226;6.902;2023-02-01T00:03:24;25.60;;;7.23;;
4835;SDS011;66719;51.226;6.902;2023-02-01T00:05:57;26.33;;;8.17;;
4835;SDS011;66719;51.226;6.902;2023-02-01T00:08:24;30.53;;;7.73;;
4835;SDS011;66719;51.226;6.902;2023-02-01T00:11:04;25.67;;;7.03;;
4835;SDS011;66719;51.226;6.902;2023-02-01T00:13:33;19.57;;;7.33;;
4835;SDS011;66719;51.226;6.902;2023-02-01T00:16:02;26.67;;;8.00;;
4835;SDS011;66719;51.226;6.902;2023-02-01T00:18:29;26.80;;;7.40;;
4835;SDS011;66719;51.226;6.902;2023-02-01T00:20:56;30.33;;;7.97;;
4835;SDS011;66719;51.226;6.902;2023-02-01T00:23:23;30.00;;;8.47;;
4835;SDS011;66719;51.226;6.902;2023-02-01T00:25:49;28.23;;;10.00;;
4835;SDS011;66719;51.226;6.902;2023-02-01T00:28:16;30.17;;;9.40;;
4835;SDS011;66719;51.226;6.902;2023-02-01T00:30:42;28.27;;;9.60;;
4835;SDS011;66719;51.226;6.902;2023-02-01T00:33:09;23.20;;;9.70;;
4835;SDS011;66719;51.226;6.902;2023-02-01T00:35:35;28.03;;;10.23;;
4835;SDS011;66719;51.226;6.902;2023-02-01T00:38:02;28.43;;;9.93;;
4835;SDS011;66719;51.226;6.902;2023-02-01T00:40:28;33.70;;;10.50;;
4835;SDS011;66719;51.226;6.902;2023-02-01T00:42:55;33.13;;;11.57;;
4835;SDS011;66719;51.226;6.902;2023-02-01T00:45:23;25.73;;;9.90;;
4835;SDS011;66719;51.226;6.902;2023-02-01T00:47:50;29.50;;;10.60;;
4835;SDS011;66719;51.226;6.902;2023-02-01T00:50:16;36.20;;;10.67;;
4835;SDS011;66719;51.226;6.902;2023-02-01T00:52:43;30.03;;;10.77;;
4835;SDS011;66719;51.226;6.902;2023-02-01T00:55:09;31.90;;;11.40;;
4835;SDS011;66719;51.226;6.902;2023-02-01T00:57:36;29.90;;;10.50;;
4835;SDS011;66719;51.226;6.902;2023-02-01T01:00:02;27.30;;;9.40;;
4835;SDS011;66719;51.226;6.902;2023-02-01T01:02:29;28.13;;;8.70;;
4835;SDS011;66719;51.226;6.902;2023-02-01T01:04:56;25.53;;;9.67;;
4835;SDS011;66719;51.226;6.902;2023-02-01T01:07:22;27.63;;;10.33;;
4835;SDS011;66719;51.226;6.902;2023-02-01T01:09:48;30.57;;;9.50;;
4835;SDS011;66719;51.226;6.902;2023-02-01T01:12:15;34.77;;;8.57;;
4835;SDS011;66719;51.226;6.902;2023-02-01T01:14:41;31.80;;;8.73;;
4835;SDS011;66719;51.226;6.902;2023-02-01T01:17:08;24.93;;;8.07;;
4835;SDS011;66719;51.226;6.902;2023-02-01T01:19:34;30.63;;;9.07;;
4835;SDS011;66719;51.226;6.902;2023-02-01T01:22:01;24.67;;;8.53;;
4835;SDS011;66719;51.226;6.902;2023-02-01T01:24:27;23.63;;;7.80;;
4835;SDS011;66719;51.226;6.902;2023-02-01T01:26:54;28.93;;;7.17;;
4835;SDS011;66719;51.226;6.902;2023-02-01T01:29:20;26.83;;;6.80;;
4835;SDS011;66719;51.226;6.902;2023-02-01T01:31:47;24.67;;;6.40;;
4835;SDS011;66719;51.226;6.902;2023-02-01T01:34:13;25.13;;;7.07;;
4835;SDS011;66719;51.226;6.902;2023-02-01T01:36:40;25.47;;;6.40;;
4835;SDS011;66719;51.226;6.902;2023-02-01T01:39:06;25.50;;;6.47;;
4835;SDS011;66719;51.226;6.902;2023-02-01T01:41:33;29.03;;;6.67;;
4835;SDS011;66719;51.226;6.902;2023-02-01T01:44:04;26.60;;;5.80;;
4835;SDS011;66719;51.226;6.902;2023-02-01T01:46:35;32.80;;;6.93;;
4835;SDS011;66719;51.226;6.902;2023-02-01T01:51:52;23.57;;;5.50;;
4835;SDS011;66719;51.226;6.902;2023-02-01T01:54:33;20.60;;;5.70;;
4835;SDS011;66719;51.226;6.902;2023-02-01T01:57:06;22.50;;;5.30;;
4835;SDS011;66719;51.226;6.902;2023-02-01T01:59:38;25.13;;;5.40;;
4835;SDS011;66719;51.226;6.902;2023-02-01T02:02:07;27.67;;;6.87;;
4835;SDS011;66719;51.226;6.902;2023-02-01T02:04:34;30.90;;;6.13;;
4835;SDS011;66719;51.226;6.902;2023-02-01T02:09:34;25.10;;;4.70;;
4835;SDS011;66719;51.226;6.902;2023-02-01T02:12:01;26.40;;;5.80;;
4835;SDS011;66719;51.226;6.902;2023-02-01T02:14:27;26.77;;;4.73;;
4835;SDS011;66719;51.226;6.902;2023-02-01T02:28:47;28.27;;;5.20;;
4835;SDS011;66719;51.226;6.902;2023-02-01T02:31:40;28.87;;;4.57;;
4835;SDS011;66719;51.226;6.902;2023-02-01T02:37:06;21.57;;;4.30;;
4835;SDS011;66719;51.226;6.902;2023-02-01T02:42:29;23.73;;;4.37;;
4835;SDS011;66719;51.226;6.902;2023-02-01T02:45:41;22.30;;;4.70;;
4835;SDS011;66719;51.226;6.902;2023-02-01T02:57:06;30.97;;;4.10;;
4835;SDS011;66719;51.226;6.902;2023-02-01T02:59:55;20.30;;;4.30;;
4835;SDS011;66719;51.226;6.902;2023-02-01T03:02:44;22.67;;;4.67;;
4835;SDS011;66719;51.226;6.902;2023-02-01T03:05:39;27.30;;;5.47;;
4835;SDS011;66719;51.226;6.902;2023-02-01T03:08:09;21.30;;;4.00;;
4835;SDS011;66719;51.226;6.902;2023-02-01T03:10:52;24.27;;;4.77;;
4835;SDS011;66719;51.226;6.902;2023-02-01T03:13:27;22.73;;;4.40;;
4835;SDS011;66719;51.226;6.902;2023-02-01T03:16:40;25.37;;;4.87;;
4835;SDS011;66719;51.226;6.902;2023-02-01T03:19:21;24.33;;;6.17;;
4835;SDS011;66719;51.226;6.902;2023-02-01T03:21:53;33.70;;;5.20;;
4835;SDS011;66719;51.226;6.902;2023-02-01T03:24:25;34.30;;;5.70;;
4835;SDS011;66719;51.226;6.902;2023-02-01T03:27:05;29.30;;;5.60;;
4835;SDS011;66719;51.226;6.902;2023-02-01T03:32:16;25.27;;;4.60;;
4835;SDS011;66719;51.226;6.902;2023-02-01T03:34:43;15.97;;;4.20;;
4835;SDS011;66719;51.226;6.902;2023-02-01T03:37:11;29.90;;;5.27;;
4835;SDS011;66719;51.226;6.902;2023-02-01T03:42:21;24.17;;;4.30;;
4835;SDS011;66719;51.226;6.902;2023-02-01T03:44:54;24.97;;;5.17;;
4835;SDS011;66719;51.226;6.902;2023-02-01T03:47:30;26.50;;;4.70;;
4835;SDS011;66719;51.226;6.902;2023-02-01T03:50:07;27.23;;;5.00;;
4835;SDS011;66719;51.226;6.902;2023-02-01T03:52:44;27.90;;;4.67;;
4835;SDS011;66719;51.226;6.902;2023-02-01T03:55:18;31.80;;;5.73;;
4835;SDS011;66719;51.226;6.902;2023-02-01T03:57:50;25.73;;;4.60;;
4835;SDS011;66719;51.226;6.902;2023-02-01T04:00:22;21.87;;;5.10;;
4835;SDS011;66719;51.226;6.902;2023-02-01T04:02:51;30.13;;;5.73;;
4835;SDS011;66719;51.226;6.902;2023-02-01T04:05:18;25.30;;;5.03;;
4835;SDS011;66719;51.226;6.902;2023-02-01T04:07:45;30.57;;;5.60;;
4835;SDS011;66719;51.226;6.902;2023-02-01T04:10:12;28.33;;;4.60;;
4835;SDS011;66719;51.226;6.902;2023-02-01T04:12:39;34.77;;;5.27;;
4835;SDS011;66719;51.226;6.902;2023-02-01T04:15:06;21.70;;;4.33;;
4835;SDS011;66719;51.226;6.902;2023-02-01T04:17:33;23.97;;;4.43;;
4835;SDS011;66719;51.226;6.902;2023-02-01T04:20:00;25.43;;;4.70;;
4835;SDS011;66719;51.226;6.902;2023-02-01T04:22:26;26.30;;;4.87;;
4835;SDS011;66719;51.226;6.902;2023-02-01T04:24:54;31.53;;;5.37;;
4835;SDS011;66719;51.226;6.902;2023-02-01T04:27:21;23.90;;;4.37;;
4835;SDS011;66719;51.226;6.902;2023-02-01T04:29:47;26.47;;;4.70;;
4835;SDS011;66719;51.226;6.902;2023-02-01T04:32:16;25.47;;;4.23;;
4835;SDS011;66719;51.226;6.902;2023-02-01T04:34:42;26.43;;;5.23;;
4835;SDS011;66719;51.226;6.902;2023-02-01T04:37:09;32.43;;;4.50;;
4835;SDS011;66719;51.226;6.902;2023-02-01T04:39:35;31.10;;;5.30;;
4835;SDS011;66719;51.226;6.902;2023-02-01T04:42:02;29.23;;;5.47;;
4835;SDS011;66719;51.226;6.902;2023-02-01T04:44:29;24.37;;;4.90;;
4835;SDS011;66719;51.226;6.902;2023-02-01T04:46:55;27.57;;;4.70;;
4835;SDS011;66719;51.226;6.902;2023-02-01T04:49:22;25.60;;;4.13;;
4835;SDS011;66719;51.226;6.902;2023-02-01T04:51:48;24.40;;;5.20;;
4835;SDS011;66719;51.226;6.902;2023-02-01T04:54:15;28.17;;;5.23;;
4835;SDS011;66719;51.226;6.902;2023-02-01T04:56:41;30.10;;;5.10;;
4835;SDS011;66719;51.226;6.902;2023-02-01T04:59:09;31.37;;;6.30;;
4835;SDS011;66719;51.226;6.902;2023-02-01T05:01:37;30.53;;;5.60;;
4835;SDS011;66719;51.226;6.902;2023-02-01T05:04:03;35.03;;;6.37;;
4835;SDS011;66719;51.226;6.902;2023-02-01T05:06:30;28.60;;;5.50;;
4835;SDS011;66719;51.226;6.902;2023-02-01T05:08:57;35.03;;;5.93;;
4835;SDS011;66719;51.226;6.902;2023-02-01T05:11:23;22.10;;;4.03;;
4835;SDS011;66719;51.226;6.902;2023-02-01T05:14:08;32.70;;;4.90;;
4835;SDS011;66719;51.226;6.902;2023-02-01T05:16:35;28.63;;;4.80;;
4835;SDS011;66719;51.226;6.902;2023-02-01T05:19:01;26.77;;;4.70;;
4835;SDS011;66719;51.226;6.902;2023-02-01T05:21:28;28.10;;;4.90;;
4835;SDS011;66719;51.226;6.902;2023-02-01T05:23:54;22.60;;;4.37;;
4835;SDS011;66719;51.226;6.902;2023-02-01T05:26:36;30.70;;;5.30;;
4835;SDS011;66719;51.226;6.902;2023-02-01T05:29:04;28.90;;;6.30;;
4835;SDS011;66719;51.226;6.902;2023-02-01T05:31:31;35.30;;;5.77;;
4835;SDS011;66719;51.226;6.902;2023-02-01T05:33:58;30.20;;;6.00;;
4835;SDS011;66719;51.226;6.902;2023-02-01T05:36:24;27.87;;;5.67;;
4835;SDS011;66719;51.226;6.902;2023-02-01T05:38:51;29.13;;;6.40;;
4835;SDS011;66719;51.226;6.902;2023-02-01T05:41:17;22.60;;;4.97;;
4835;SDS011;66719;51.226;6.902;2023-02-01T05:43:44;32.80;;;5.50;;
4835;SDS011;66719;51.226;6.902;2023-02-01T05:46:10;35.77;;;4.20;;
4835;SDS011;66719;51.226;6.902;2023-02-01T05:48:39;29.30;;;6.10;;
4835;SDS011;66719;51.226;6.902;2023-02-01T05:51:06;25.47;;;5.30;;
4835;SDS011;66719;51.226;6.902;2023-02-01T05:53:33;33.73;;;5.60;;
4835;SDS011;66719;51.226;6.902;2023-02-01T05:55:59;31.03;;;5.43;;
4835;SDS011;66719;51.226;6.902;2023-02-01T05:58:26;33.17;;;5.47;;
4835;SDS011;66719;51.226;6.902;2023-02-01T06:00:52;33.87;;;4.77;;
4835;SDS011;66719;51.226;6.902;2023-02-01T06:03:19;27.10;;;4.90;;
4835;SDS011;66719;51.226;6.902;2023-02-01T06:05:46;31.27;;;5.77;;
4835;SDS011;66719;51.226;6.902;2023-02-01T06:08:13;48.00;;;6.47;;
4835;SDS011;66719;51.226;6.902;2023-02-01T06:10:40;33.73;;;4.37;;
4835;SDS011;66719;51.226;6.902;2023-02-01T06:13:07;27.80;;;4.83;;
4835;SDS011;66719;51.226;6.902;2023-02-01T06:15:34;32.20;;;5.30;;
4835;SDS011;66719;51.226;6.902;2023-02-01T06:18:03;29.83;;;5.37;;
4835;SDS011;66719;51.226;6.902;2023-02-01T06:20:30;26.40;;;4.73;;
4835;SDS011;66719;51.226;6.902;2023-02-01T06:22:56;39.33;;;5.93;;
4835;SDS011;66719;51.226;6.902;2023-02-01T06:25:23;29.47;;;5.50;;
4835;SDS011;66719;51.226;6.902;2023-02-01T06:27:49;37.90;;;5.63;;
4835;SDS011;66719;51.226;6.902;2023-02-01T06:30:16;28.73;;;5.63;;
4835;SDS011;66719;51.226;6.902;2023-02-01T06:32:43;33.37;;;5.97;;
4835;SDS011;66719;51.226;6.902;2023-02-01T06:35:09;25.20;;;6.03;;
4835;SDS011;66719;51.226;6.902;2023-02-01T06:37:42;35.57;;;5.03;;
4835;SDS011;66719;51.226;6.902;2023-02-01T06:40:09;30.93;;;5.80;;
4835;SDS011;66719;51.226;6.902;2023-02-01T06:42:36;29.17;;;4.93;;
4835;SDS011;66719;51.226;6.902;2023-02-01T06:45:03;32.97;;;5.77;;
4835;SDS011;66719;51.226;6.902;2023-02-01T06:47:30;34.83;;;5.30;;
4835;SDS011;66719;51.226;6.902;2023-02-01T06:49:56;30.03;;;5.67;;
4835;SDS011;66719;51.226;6.902;2023-02-01T06:52:23;29.67;;;5.17;;
4835;SDS011;66719;51.226;6.902;2023-02-01T06:54:49;35.17;;;5.70;;
4835;SDS011;66719;51.226;6.902;2023-02-01T06:57:16;23.40;;;4.50;;
4835;SDS011;66719;51.226;6.902;2023-02-01T06:59:42;26.77;;;4.83;;
4835;SDS011;66719;51.226;6.902;2023-02-01T07:02:10;28.10;;;5.37;;
4835;SDS011;66719;51.226;6.902;2023-02-01T07:04:37;29.97;;;4.50;;
4835;SDS011;66719;51.226;6.902;2023-02-01T07:07:03;30.93;;;5.27;;
4835;SDS011;66719;51.226;6.902;2023-02-01T07:09:30;25.90;;;4.30;;
4835;SDS011;66719;51.226;6.902;2023-02-01T07:11:56;27.93;;;5.53;;
4835;SDS011;66719;51.226;6.902;2023-02-01T07:14:23;29.90;;;5.40;;
4835;SDS011;66719;51.226;6.902;2023-02-01T07:16:49;38.87;;;5.90;;
4835;SDS011;66719;51.226;6.902;2023-02-01T07:19:16;29.73;;;5.73;;
4835;SDS011;66719;51.226;6.902;2023-02-01T07:21:43;45.37;;;7.00;;
4835;SDS011;66719;51.226;6.902;2023-02-01T07:24:09;34.70;;;5.90;;
4835;SDS011;66719;51.226;6.902;2023-02-01T07:26:36;36.40;;;5.70;;
4835;SDS011;66719;51.226;6.902;2023-02-01T07:29:02;27.57;;;5.77;;
4835;SDS011;66719;51.226;6.902;2023-02-01T07:31:29;31.23;;;6.37;;
4835;SDS011;66719;51.226;6.902;2023-02-01T07:33:55;37.10;;;6.17;;
4835;SDS011;66719;51.226;6.902;2023-02-01T07:36:23;34.70;;;5.40;;
4835;SDS011;66719;51.226;6.902;2023-02-01T07:38:50;34.20;;;5.70;;
4835;SDS011;66719;51.226;6.902;2023-02-01T07:41:21;28.47;;;5.70;;
4835;SDS011;66719;51.226;6.902;2023-02-01T07:43:48;34.40;;;5.50;;
4835;SDS011;66719;51.226;6.902;2023-02-01T07:46:16;20.73;;;4.50;;
4835;SDS011;66719;51.226;6.902;2023-02-01T07:48:43;26.73;;;4.70;;
4835;SDS011;66719;51.226;6.902;2023-02-01T07:51:13;30.33;;;5.70;;
4835;SDS011;66719;51.226;6.902;2023-02-01T07:53:42;36.43;;;6.67;;
4835;SDS011;66719;51.226;6.902;2023-02-01T07:56:17;35.30;;;5.50;;
4835;SDS011;66719;51.226;6.902;2023-02-01T07:58:51;31.13;;;5.13;;
4835;SDS011;66719;51.226;6.902;2023-02-01T08:01:22;31.57;;;6.03;;
4835;SDS011;66719;51.226;6.902;2023-02-01T08:04:02;27.10;;;5.27;;
4835;SDS011;66719;51.226;6.902;2023-02-01T08:06:33;33.27;;;4.90;;
4835;SDS011;66719;51.226;6.902;2023-02-01T08:09:00;28.60;;;5.23;;
4835;SDS011;66719;51.226;6.902;2023-02-01T08:11:28;34.57;;;5.83;;
4835;SDS011;66719;51.226;6.902;2023-02-01T08:13:55;41.33;;;6.40;;
4835;SDS011;66719;51.226;6.902;2023-02-01T08:16:22;33.80;;;5.73;;
4835;SDS011;66719;51.226;6.902;2023-02-01T08:18:49;35.23;;;5.80;;
4835;SDS011;66719;51.226;6.902;2023-02-01T08:21:17;28.60;;;5.40;;
4835;SDS011;66719;51.226;6.902;2023-02-01T08:23:46;37.37;;;5.83;;
4835;SDS011;66719;51.226;6.902;2023-02-01T08:26:20;28.10;;;4.03;;
4835;SDS011;66719;51.226;6.902;2023-02-01T08:28:52;29.63;;;4.80;;
4835;SDS011;66719;51.226;6.902;2023-02-01T08:31:22;32.13;;;5.33;;
4835;SDS011;66719;51.226;6.902;2023-02-01T08:33:52;26.67;;;5.00;;
4835;SDS011;66719;51.226;6.902;2023-02-01T08:36:20;37.93;;;5.30;;
4835;SDS011;66719;51.226;6.902;2023-02-01T08:38:48;38.77;;;7.13;;
4835;SDS011;66719;51.226;6.902;2023-02-01T08:41:16;31.63;;;5.37;;
4835;SDS011;66719;51.226;6.902;2023-02-01T08:43:45;36.73;;;5.93;;
4835;SDS011;66719;51.226;6.902;2023-02-01T08:46:12;31.77;;;5.80;;
4835;SDS011;66719;51.226;6.902;2023-02-01T08:48:39;28.83;;;5.30;;
4835;SDS011;66719;51.226;6.902;2023-02-01T08:51:07;33.47;;;4.77;;
4835;SDS011;66719;51.226;6.902;2023-02-01T08:53:35;33.63;;;6.43;;
4835;SDS011;66719;51.226;6.902;2023-02-01T08:56:02;40.60;;;6.90;;
4835;SDS011;66719;51.226;6.902;2023-02-01T08:58:29;37.17;;;5.73;;
4835;SDS011;66719;51.226;6.902;2023-02-01T09:00:56;34.50;;;6.20;;
4835;SDS011;66719;51.226;6.902;2023-02-01T09:03:22;40.20;;;7.57;;
4835;SDS011;66719;51.226;6.902;2023-02-01T09:05:49;29.93;;;5.10;;
4835;SDS011;66719;51.226;6.902;2023-02-01T09:08:17;43.23;;;7.53;;
4835;SDS011;66719;51.226;6.902;2023-02-01T09:10:46;28.60;;;5.83;;
4835;SDS011;66719;51.226;6.902;2023-02-01T09:13:12;36.30;;;6.27;;
4835;SDS011;66719;51.226;6.902;2023-02-01T09:15:39;30.40;;;5.90;;
4835;SDS011;66719;51.226;6.902;2023-02-01T09:18:06;22.13;;;5.13;;
4835;SDS011;66719;51.226;6.902;2023-02-01T09:20:32;27.50;;;4.90;;
4835;SDS011;66719;51.226;6.902;2023-02-01T09:22:59;29.23;;;4.90;;
4835;SDS011;66719;51.226;6.902;2023-02-01T09:25:26;33.07;;;5.67;;
4835;SDS011;66719;51.226;6.902;2023-02-01T09:27:52;26.07;;;5.23;;
4835;SDS011;66719;51.226;6.902;2023-02-01T09:30:19;29.60;;;5.37;;
4835;SDS011;66719;51.226;6.902;2023-02-01T09:32:46;24.33;;;6.37;;
4835;SDS011;66719;51.226;6.902;2023-02-01T09:35:12;29.03;;;5.57;;
4835;SDS011;66719;51.226;6.902;2023-02-01T09:37:39;25.53;;;5.40;;
4835;SDS011;66719;51.226;6.902;2023-02-01T09:40:05;30.10;;;5.30;;
4835;SDS011;66719;51.226;6.902;2023-02-01T09:42:40;34.07;;;5.57;;
4835;SDS011;66719;51.226;6.902;2023-02-01T09:48:15;30.03;;;5.40;;
4835;SDS011;66719;51.226;6.902;2023-02-01T09:50:50;33.63;;;5.10;;
4835;SDS011;66719;51.226;6.902;2023-02-01T09:53:24;36.30;;;5.20;;
4835;SDS011;66719;51.226;6.902;2023-02-01T09:59:42;30.67;;;4.57;;
4835;SDS011;66719;51.226;6.902;2023-02-01T10:02:01;26.93;;;5.70;;
4835;SDS011;66719;51.226;6.902;2023-02-01T10:04:29;33.93;;;4.90;;
4835;SDS011;66719;51.226;6.902;2023-02-01T10:07:05;35.37;;;6.10;;
4835;SDS011;66719;51.226;6.902;2023-02-01T10:12:53;26.80;;;5.90;;
4835;SDS011;66719;51.226;6.902;2023-02-01T10:18:42;24.43;;;4.17;;
4835;SDS011;66719;51.226;6.902;2023-02-01T10:21:13;31.57;;;5.60;;
4835;SDS011;66719;51.226;6.902;2023-02-01T10:26:44;26.67;;;4.37;;
4835;SDS011;66719;51.226;6.902;2023-02-01T10:29:16;23.63;;;4.50;;
4835;SDS011;66719;51.226;6.902;2023-02-01T10:31:45;29.03;;;4.60;;
4835;SDS011;66719;51.226;6.902;2023-02-01T10:34:18;29.43;;;5.07;;
4835;SDS011;66719;51.226;6.902;2023-02-01T10:39:23;22.57;;;4.70;;
4835;SDS011;66719;51.226;6.902;2023-02-01T10:41:50;29.23;;;5.67;;
4835;SDS011;66719;51.226;6.902;2023-02-01T10:44:18;29.30;;;5.70;;
4835;SDS011;66719;51.226;6.902;2023-02-01T10:46:49;27.90;;;5.40;;
4835;SDS011;66719;51.226;6.902;2023-02-01T10:52:12;24.40;;;5.47;;
4835;SDS011;66719;51.226;6.902;2023-02-01T10:54:41;32.80;;;5.13;;
4835;SDS011;66719;51.226;6.902;2023-02-01T10:57:09;24.07;;;5.83;;
4835;SDS011;66719;51.226;6.902;2023-02-01T10:59:37;28.60;;;4.50;;
4835;SDS011;66719;51.226;6.902;2023-02-01T11:02:23;28.63;;;6.10;;
4835;SDS011;66719;51.226;6.902;2023-02-01T11:05:05;34.57;;;5.23;;
4835;SDS011;66719;51.226;6.902;2023-02-01T11:07:36;24.70;;;5.40;;
4835;SDS011;66719;51.226;6.902;2023-02-01T11:10:03;26.47;;;4.70;;
4835;SDS011;66719;51.226;6.902;2023-02-01T11:12:35;28.20;;;4.50;;
4835;SDS011;66719;51.226;6.902;2023-02-01T11:17:44;27.47;;;4.90;;
4835;SDS011;66719;51.226;6.902;2023-02-01T11:22:49;27.20;;;4.90;;
4835;SDS011;66719;51.226;6.902;2023-02-01T11:25:20;33.87;;;5.20;;
4835;SDS011;66719;51.226;6.902;2023-02-01T11:27:53;25.40;;;5.03;;
4835;SDS011;66719;51.226;6.902;2023-02-01T11:30:38;20.43;;;5.07;;
4835;SDS011;66719;51.226;6.902;2023-02-01T11:33:09;25.93;;;4.40;;
4835;SDS011;66719;51.226;6.902;2023-02-01T11:35:43;26.70;;;4.23;;
4835;SDS011;66719;51.226;6.902;2023-02-01T11:38:15;29.60;;;4.80;;
4835;SDS011;66719;51.226;6.902;2023-02-01T11:40:46;23.77;;;4.60;;
4835;SDS011;66719;51.226;6.902;2023-02-01T11:43:22;27.10;;;4.50;;
4835;SDS011;66719;51.226;6.902;2023-02-01T11:45:55;24.93;;;4.00;;
4835;SDS011;66719;51.226;6.902;2023-02-01T11:48:24;23.63;;;4.20;;
4835;SDS011;66719;51.226;6.902;2023-02-01T12:04:08;27.00;;;4.77;;
4835;SDS011;66719;51.226;6.902;2023-02-01T12:06:55;27.40;;;4.60;;
4835;SDS011;66719;51.226;6.902;2023-02-01T12:28:08;25.70;;;4.70;;
4835;SDS011;66719;51.226;6.902;2023-02-01T12:36:16;24.60;;;4.17;;
4835;SDS011;66719;51.226;6.902;2023-02-01T12:38:53;24.40;;;5.33;;
4835;SDS011;66719;51.226;6.902;2023-02-01T12:41:48;31.40;;;5.80;;
4835;SDS011;66719;51.226;6.902;2023-02-01T12:50:04;26.40;;;5.40;;
4835;SDS011;66719;51.226;6.902;2023-02-01T12:52:50;26.63;;;5.40;;
4835;SDS011;66719;51.226;6.902;2023-02-01T12:55:27;31.17;;;4.80;;
4835;SDS011;66719;51.226;6.902;2023-02-01T12:58:08;30.37;;;4.90;;
4835;SDS011;66719;51.226;6.902;2023-02-01T13:00:40;20.33;;;4.20;;
4835;SDS011;66719;51.226;6.902;2023-02-01T13:03:27;21.80;;;3.93;;
4835;SDS011;66719;51.226;6.902;2023-02-01T13:06:06;26.00;;;5.33;;
4835;SDS011;66719;51.226;6.902;2023-02-01T13:11:46;28.53;;;4.20;;
4835;SDS011;66719;51.226;6.902;2023-02-01T13:16:50;26.43;;;4.90;;
4835;SDS011;66719;51.226;6.902;2023-02-01T13:19:24;26.37;;;4.60;;
4835;SDS011;66719;51.226;6.902;2023-02-01T13:22:10;27.00;;;4.50;;
4835;SDS011;66719;51.226;6.902;2023-02-01T13:24:45;25.63;;;4.17;;
4835;SDS011;66719;51.226;6.902;2023-02-01T13:27:18;28.43;;;4.03;;
4835;SDS011;66719;51.226;6.902;2023-02-01T13:29:48;22.33;;;5.17;;
4835;SDS011;66719;51.226;6.902;2023-02-01T13:41:57;31.07;;;4.53;;
4835;SDS011;66719;51.226;6.902;2023-02-01T13:44:44;24.40;;;5.00;;
4835;SDS011;66719;51.226;6.902;2023-02-01T13:49:50;23.00;;;4.30;;
4835;SDS011;66719;51.226;6.902;2023-02-01T13:52:29;21.07;;;3.77;;
4835;SDS011;66719;51.226;6.902;2023-02-01T13:55:00;24.27;;;5.30;;
4835;SDS011;66719;51.226;6.902;2023-02-01T13:57:49;25.03;;;5.80;;
4835;SDS011;66719;51.226;6.902;2023-02-01T14:13:30;23.27;;;3.40;;
4835;SDS011;66719;51.226;6.902;2023-02-01T14:26:48;26.10;;;4.50;;
4835;SDS011;66719;51.226;6.902;2023-02-01T14:47:43;22.53;;;3.70;;
4835;SDS011;66719;51.226;6.902;2023-02-01T14:55:40;26.20;;;3.63;;
4835;SDS011;66719;51.226;6.902;2023-02-01T14:58:27;21.40;;;5.23;;
4835;SDS011;66719;51.226;6.902;2023-02-01T15:01:32;24.37;;;4.03;;
4835;SDS011;66719;51.226;6.902;2023-02-01T15:06:40;19.20;;;3.53;;
4835;SDS011;66719;51.226;6.902;2023-02-01T15:09:12;24.97;;;3.70;;
4835;SDS011;66719;51.226;6.902;2023-02-01T15:12:04;22.10;;;4.60;;
4835;SDS011;66719;51.226;6.902;2023-02-01T15:14:32;24.37;;;3.83;;
4835;SDS011;66719;51.226;6.902;2023-02-01T15:17:16;21.30;;;3.47;;
4835;SDS011;66719;51.226;6.902;2023-02-01T15:20:04;27.70;;;3.80;;
4835;SDS011;66719;51.226;6.902;2023-02-01T15:22:39;25.23;;;4.10;;
4835;SDS011;66719;51.226;6.902;2023-02-01T15:25:17;22.60;;;4.23;;
4835;SDS011;66719;51.226;6.902;2023-02-01T15:27:46;25.37;;;3.40;;
4835;SDS011;66719;51.226;6.902;2023-02-01T15:30:18;19.03;;;3.43;;
4835;SDS011;66719;51.226;6.902;2023-02-01T15:32:47;22.07;;;3.43;;
4835;SDS011;66719;51.226;6.902;2023-02-01T15:43:30;24.60;;;3.83;;
4835;SDS011;66719;51.226;6.902;2023-02-01T15:46:00;21.87;;;4.50;;
4835;SDS011;66719;51.226;6.902;2023-02-01T15:48:39;25.93;;;4.50;;
4835;SDS011;66719;51.226;6.902;2023-02-01T15:51:13;27.47;;;4.50;;
4835;SDS011;66719;51.226;6.902;2023-02-01T15:53:44;23.30;;;3.90;;
4835;SDS011;66719;51.226;6.902;2023-02-01T15:56:20;27.80;;;4.53;;
4835;SDS011;66719;51.226;6.902;2023-02-01T15:58:49;31.00;;;4.37;;
4835;SDS011;66719;51.226;6.902;2023-02-01T16:01:19;25.33;;;5.03;;
4835;SDS011;66719;51.226;6.902;2023-02-01T16:03:46;24.60;;;4.60;;
4835;SDS011;66719;51.226;6.902;2023-02-01T16:11:29;36.27;;;4.50;;
4835;SDS011;66719;51.226;6.902;2023-02-01T16:13:58;23.23;;;3.47;;
4835;SDS011;66719;51.226;6.902;2023-02-01T16:16:26;28.63;;;4.30;;
4835;SDS011;66719;51.226;6.902;2023-02-01T16:18:54;23.23;;;4.43;;
4835;SDS011;66719;51.226;6.902;2023-02-01T16:21:21;23.30;;;4.27;;
4835;SDS011;66719;51.226;6.902;2023-02-01T16:23:51;23.50;;;3.50;;
4835;SDS011;66719;51.226;6.902;2023-02-01T16:26:18;24.50;;;4.27;;
4835;SDS011;66719;51.226;6.902;2023-02-01T16:28:46;21.43;;;4.10;;
4835;SDS011;66719;51.226;6.902;2023-02-01T16:31:14;29.77;;;4.83;;
4835;SDS011;66719;51.226;6.902;2023-02-01T16:33:48;28.60;;;4.70;;
4835;SDS011;66719;51.226;6.902;2023-02-01T16:36:16;21.80;;;4.70;;
4835;SDS011;66719;51.226;6.902;2023-02-01T16:38:43;28.77;;;4.93;;
4835;SDS011;66719;51.226;6.902;2023-02-01T16:41:15;22.53;;;3.93;;
4835;SDS011;66719;51.226;6.902;2023-02-01T16:43:43;20.87;;;4.07;;
4835;SDS011;66719;51.226;6.902;2023-02-01T16:46:18;23.93;;;4.07;;
4835;SDS011;66719;51.226;6.902;2023-02-01T16:48:53;19.40;;;4.00;;
4835;SDS011;66719;51.226;6.902;2023-02-01T16:51:24;27.63;;;4.50;;
4835;SDS011;66719;51.226;6.902;2023-02-01T16:53:52;36.10;;;4.70;;
4835;SDS011;66719;51.226;6.902;2023-02-01T16:56:24;25.57;;;4.70;;
4835;SDS011;66719;51.226;6.902;2023-02-01T16:58:55;26.10;;;3.87;;
4835;SDS011;66719;51.226;6.902;2023-02-01T17:01:22;25.23;;;4.27;;
4835;SDS011;66719;51.226;6.902;2023-02-01T17:03:50;23.97;;;4.10;;
4835;SDS011;66719;51.226;6.902;2023-02-01T17:06:18;25.47;;;4.30;;
4835;SDS011;66719;51.226;6.902;2023-02-01T17:08:49;18.80;;;4.03;;
4835;SDS011;66719;51.226;6.902;2023-02-01T17:11:20;25.97;;;4.80;;
4835;SDS011;66719;51.226;6.902;2023-02-01T17:13:47;34.33;;;4.10;;
4835;SDS011;66719;51.226;6.902;2023-02-01T17:18:43;30.30;;;4.80;;
4835;SDS011;66719;51.226;6.902;2023-02-01T17:21:13;19.70;;;3.27;;
4835;SDS011;66719;51.226;6.902;2023-02-01T17:23:40;25.17;;;4.00;;
4835;SDS011;66719;51.226;6.902;2023-02-01T17:26:10;28.53;;;4.80;;
4835;SDS011;66719;51.226;6.902;2023-02-01T17:28:36;30.30;;;5.50;;
4835;SDS011;66719;51.226;6.902;2023-02-01T17:31:03;23.20;;;4.57;;
4835;SDS011;66719;51.226;6.902;2023-02-01T17:33:31;28.57;;;4.00;;
4835;SDS011;66719;51.226;6.902;2023-02-01T17:36:02;30.67;;;5.03;;
4835;SDS011;66719;51.226;6.902;2023-02-01T17:38:31;24.73;;;4.47;;
4835;SDS011;66719;51.226;6.902;2023-02-01T17:40:59;27.23;;;4.90;;
4835;SDS011;66719;51.226;6.902;2023-02-01T17:43:26;26.00;;;4.10;;
4835;SDS011;66719;51.226;6.902;2023-02-01T17:45:54;24.90;;;4.60;;
4835;SDS011;66719;51.226;6.902;2023-02-01T17:48:23;24.70;;;4.30;;
4835;SDS011;66719;51.226;6.902;2023-02-01T17:50:53;32.40;;;4.50;;
4835;SDS011;66719;51.226;6.902;2023-02-01T17:53:24;36.10;;;5.10;;
4835;SDS011;66719;51.226;6.902;2023-02-01T17:55:51;21.17;;;4.30;;
4835;SDS011;66719;51.226;6.902;2023-02-01T17:58:18;22.03;;;3.90;;
4835;SDS011;66719;51.226;6.902;2023-02-01T18:00:46;22.97;;;4.20;;
4835;SDS011;66719;51.226;6.902;2023-02-01T18:03:27;27.27;;;4.30;;
4835;SDS011;66719;51.226;6.902;2023-02-01T18:05:58;27.30;;;4.10;;
4835;SDS011;66719;51.226;6.902;2023-02-01T18:08:25;26.67;;;4.20;;
4835;SDS011;66719;51.226;6.902;2023-02-01T18:10:58;21.80;;;3.47;;
4835;SDS011;66719;51.226;6.902;2023-02-01T18:13:26;24.27;;;3.70;;
4835;SDS011;66719;51.226;6.902;2023-02-01T18:15:53;22.27;;;4.27;;
4835;SDS011;66719;51.226;6.902;2023-02-01T18:18:21;20.40;;;3.70;;